Time;durP1;ratioP1;P1;durP2;ratioP2;P2;SDS_P1;SDS_P2;PMS_P1;PMS_P2;Temp;Humidity;BMP_temperature;BMP_pressure;BME280_temperature;BME280_humidity;BME280_pressure;Samples;Min_cycle;Max_cycle;Signal;HPM_P1;HPM_P2
2023/10/08 00:00:55;;;;;;;1999.90;999.90;;;12.60;86.40;;;;;;5049715;28;20024;-76
2023/10/08 00:03:21;;;;;;;1999.90;999.90;;;12.60;86.10;;;;;;5054832;28;20031;-76
2023/10/08 00:05:49;;;;;;;1999.90;999.90;;;12.60;85.90;;;;;;5052297;28;20029;-74
2023/10/08 00:08:16;;;;;;;1999.90;999.90;;;12.50;86.20;;;;;;5053019;28;20025;-73
2023/10/08 00:10:44;;;;;;;1999.90;999.90;;;12.50;86.40;;;;;;5050948;28;20113;-74
2023/10/08 00:13:15;;;;;;;1999.90;999.90;;;12.60;85.90;;;;;;5050752;28;20025;-75
2023/10/08 00:15:52;;;;;;;1999.90;999.90;;;12.60;86.10;;;;;;5057748;28;20028;-74
2023/10/08 00:18:22;;;;;;;1999.90;999.90;;;12.50;86.00;;;;;;5049704;28;20060;-74
2023/10/08 00:20:57;;;;;;;1999.90;999.90;;;12.50;86.00;;;;;;5053287;28;20584;-74
2023/10/08 00:23:26;;;;;;;1999.90;999.90;;;12.40;86.00;;;;;;5054574;28;20056;-75
2023/10/08 00:25:54;;;;;;;1999.90;999.90;;;12.40;86.00;;;;;;5046605;28;20041;-74
2023/10/08 00:28:21;;;;;;;1999.90;999.90;;;12.40;86.90;;;;;;5052071;28;20033;-75
2023/10/08 00:30:47;;;;;;;1999.90;999.90;;;12.40;86.10;;;;;;5052328;28;20068;-74
2023/10/08 00:33:14;;;;;;;1999.90;999.90;;;12.30;86.10;;;;;;5052474;28;20476;-75
2023/10/08 00:35:41;;;;;;;1999.90;999.90;;;12.30;86.00;;;;;;5058010;28;20025;-74
2023/10/08 00:38:20;;;;;;;1999.90;999.90;;;12.30;86.10;;;;;;5054714;28;20031;-75
2023/10/08 00:40:46;;;;;;;1999.90;999.90;;;12.30;86.30;;;;;;5047976;28;20028;-75
2023/10/08 00:43:34;;;;;;;1999.90;999.90;;;12.40;85.70;;;;;;5055612;28;20041;-76
2023/10/08 00:49:18;;;;;;;1999.90;999.90;;;12.30;85.70;;;;;;5033212;28;20040;-75
2023/10/08 00:51:59;;;;;;;1999.90;999.90;;;12.20;86.20;;;;;;5055193;28;20170;-74
2023/10/08 00:54:25;;;;;;;1999.90;999.90;;;12.20;86.00;;;;;;5056820;28;20071;-75
2023/10/08 00:59:16;;;;;;;1999.90;999.90;;;12.30;86.40;;;;;;5052735;28;20425;-74
2023/10/08 01:01:51;;;;;;;1999.90;999.90;;;12.30;86.10;;;;;;5053556;28;20561;-75
2023/10/08 01:04:19;;;;;;;1999.90;999.90;;;12.30;85.80;;;;;;5056476;28;20035;-74
2023/10/08 01:06:47;;;;;;;1999.90;999.90;;;12.30;85.50;;;;;;5052371;28;20036;-74
2023/10/08 01:09:21;;;;;;;1999.90;999.90;;;12.30;85.50;;;;;;5053650;28;20028;-76
2023/10/08 01:12:27;;;;;;;1999.90;999.90;;;12.30;85.30;;;;;;5049357;28;20083;-75
2023/10/08 01:14:53;;;;;;;1999.90;999.90;;;12.30;85.40;;;;;;5057880;28;20039;-76
2023/10/08 01:17:25;;;;;;;1999.90;999.90;;;12.30;85.10;;;;;;5055084;28;20024;-74
2023/10/08 01:19:56;;;;;;;1999.90;999.90;;;12.30;84.70;;;;;;5052212;28;20026;-76
2023/10/08 01:22:22;;;;;;;1999.90;999.90;;;12.40;85.00;;;;;;5048172;28;20060;-75
2023/10/08 01:24:51;;;;;;;1999.90;999.90;;;12.40;84.50;;;;;;5048478;28;20075;-75
2023/10/08 01:27:24;;;;;;;1999.90;999.90;;;12.40;84.10;;;;;;5053629;28;20086;-75
2023/10/08 01:29:51;;;;;;;1999.90;999.90;;;12.40;84.10;;;;;;5049889;28;20049;-75
2023/10/08 01:32:19;;;;;;;1999.90;999.90;;;12.40;84.50;;;;;;5051449;28;20033;-75
2023/10/08 01:34:45;;;;;;;1999.90;999.90;;;12.40;84.40;;;;;;5051670;28;20021;-75
2023/10/08 01:37:21;;;;;;;1999.90;999.90;;;12.40;84.40;;;;;;5049217;28;20052;-75
2023/10/08 01:39:50;;;;;;;1999.90;999.90;;;12.40;84.20;;;;;;5050021;28;20529;-76
2023/10/08 01:42:20;;;;;;;1999.90;999.90;;;12.40;84.20;;;;;;5054543;28;20035;-74
2023/10/08 01:44:55;;;;;;;1999.90;999.90;;;12.30;84.40;;;;;;5051765;28;20032;-74
2023/10/08 01:47:20;;;;;;;1999.90;999.90;;;12.30;84.60;;;;;;5049873;28;20028;-74
2023/10/08 01:49:46;;;;;;;1999.90;999.90;;;12.30;84.10;;;;;;5050509;28;20047;-74
2023/10/08 01:52:21;;;;;;;1999.90;999.90;;;12.30;84.10;;;;;;5051208;28;20036;-74
2023/10/08 01:54:48;;;;;;;1999.90;999.90;;;12.30;84.30;;;;;;5049522;28;20040;-74
2023/10/08 01:57:14;;;;;;;1999.90;999.90;;;12.30;84.40;;;;;;5050639;28;20036;-74
2023/10/08 01:59:40;;;;;;;1999.90;999.90;;;12.30;84.30;;;;;;5051436;28;20029;-74
2023/10/08 02:02:06;;;;;;;1999.90;999.90;;;12.30;84.20;;;;;;5050575;28;20056;-74
2023/10/08 02:04:35;;;;;;;1999.90;999.90;;;12.30;84.10;;;;;;5056406;28;20131;-75
2023/10/08 02:07:07;;;;;;;1999.90;999.90;;;12.30;83.90;;;;;;5052624;28;20166;-74
2023/10/08 02:09:35;;;;;;;1999.90;999.90;;;12.40;83.20;;;;;;5049158;28;20071;-74
2023/10/08 02:12:03;;;;;;;1999.90;999.90;;;12.40;84.10;;;;;;5045975;28;20035;-76
2023/10/08 02:14:31;;;;;;;1999.90;999.90;;;12.50;83.00;;;;;;5058518;28;20521;-75
2023/10/08 02:17:01;;;;;;;1999.90;999.90;;;12.40;82.80;;;;;;5051588;28;20032;-76
2023/10/08 02:19:28;;;;;;;1999.90;999.90;;;12.50;82.80;;;;;;5055886;28;20150;-74
2023/10/08 02:21:57;;;;;;;1999.90;999.90;;;12.50;82.40;;;;;;5052419;28;20037;-75
2023/10/08 02:24:24;;;;;;;1999.90;999.90;;;12.60;81.70;;;;;;5052917;28;20418;-75
2023/10/08 02:26:57;;;;;;;1999.90;999.90;;;12.60;81.40;;;;;;5058562;28;20044;-74
2023/10/08 02:29:29;;;;;;;1999.90;999.90;;;12.60;81.30;;;;;;5052565;28;20064;-75
2023/10/08 02:31:55;;;;;;;1999.90;999.90;;;12.50;81.70;;;;;;5051306;28;20550;-74
2023/10/08 02:34:21;;;;;;;1999.90;999.90;;;12.50;81.40;;;;;;5049715;28;20039;-76
2023/10/08 02:36:47;;;;;;;1999.90;999.90;;;12.50;81.60;;;;;;5046594;28;20112;-75
2023/10/08 02:39:25;;;;;;;1999.90;999.90;;;12.40;80.40;;;;;;5050458;28;20697;-74
2023/10/08 02:41:52;;;;;;;1999.90;999.90;;;12.50;81.00;;;;;;5055509;28;20043;-74
2023/10/08 02:44:20;;;;;;;1999.90;999.90;;;12.40;81.00;;;;;;5051801;28;20383;-74
2023/10/08 02:46:47;;;;;;;1999.90;999.90;;;12.40;81.00;;;;;;5051489;28;20041;-72
2023/10/08 02:49:20;;;;;;;1999.90;999.90;;;12.40;80.70;;;;;;5055087;28;20785;-74
2023/10/08 02:51:50;;;;;;;1999.90;999.90;;;12.40;80.80;;;;;;5054332;28;20082;-75
2023/10/08 02:54:17;;;;;;;1999.90;999.90;;;12.40;80.40;;;;;;5052689;28;20115;-75
2023/10/08 02:56:45;;;;;;;1999.90;999.90;;;12.40;80.60;;;;;;5047009;28;20045;-74
2023/10/08 02:59:12;;;;;;;1999.90;999.90;;;12.40;80.00;;;;;;5047785;28;20029;-74
2023/10/08 03:01:42;;;;;;;1999.90;999.90;;;12.40;80.20;;;;;;5053532;28;20078;-75
2023/10/08 03:04:20;;;;;;;1999.90;999.90;;;12.40;80.00;;;;;;5048603;28;20053;-76
2023/10/08 03:06:49;;;;;;;1999.90;999.90;;;12.40;80.00;;;;;;5046804;28;20070;-74
2023/10/08 03:09:20;;;;;;;1999.90;999.90;;;12.30;80.20;;;;;;5047426;28;20033;-74
2023/10/08 03:11:50;;;;;;;1999.90;999.90;;;12.40;79.70;;;;;;5048058;28;20120;-74
2023/10/08 03:14:26;;;;;;;1999.90;999.90;;;12.30;80.00;;;;;;5047593;28;20025;-74
2023/10/08 03:17:03;;;;;;;1999.90;999.90;;;12.40;79.80;;;;;;5048356;28;20283;-76
2023/10/08 03:19:30;;;;;;;1999.90;999.90;;;12.30;80.00;;;;;;5052595;28;20507;-74
2023/10/08 03:21:56;;;;;;;1999.90;999.90;;;12.40;80.00;;;;;;5049912;28;20045;-74
2023/10/08 03:24:37;;;;;;;1999.90;999.90;;;12.30;80.00;;;;;;5048758;28;20108;-75
2023/10/08 03:27:26;;;;;;;1999.90;999.90;;;12.40;80.10;;;;;;5052077;28;20116;-74
2023/10/08 03:29:54;;;;;;;1999.90;999.90;;;12.30;80.50;;;;;;5047956;28;20049;-74
2023/10/08 03:32:26;;;;;;;1999.90;999.90;;;12.30;80.50;;;;;;5050569;28;20491;-74
2023/10/08 03:34:54;;;;;;;1999.90;999.90;;;12.30;80.60;;;;;;5048672;28;20029;-74
2023/10/08 03:37:29;;;;;;;1999.90;999.90;;;12.30;80.30;;;;;;5051685;28;20083;-75
2023/10/08 03:40:07;;;;;;;1999.90;999.90;;;12.30;80.60;;;;;;5052745;28;20068;-75
2023/10/08 03:42:40;;;;;;;1999.90;999.90;;;12.30;81.60;;;;;;5040925;28;20513;-75
2023/10/08 03:45:11;;;;;;;1999.90;999.90;;;12.20;81.00;;;;;;5049844;28;20037;-74
2023/10/08 03:47:38;;;;;;;1999.90;999.90;;;12.20;81.10;;;;;;5050948;28;20429;-74
2023/10/08 03:50:09;;;;;;;1999.90;999.90;;;12.20;81.40;;;;;;5050056;28;20483;-75
2023/10/08 03:52:38;;;;;;;1999.90;999.90;;;12.10;81.70;;;;;;5053607;28;20574;-75
2023/10/08 03:55:28;;;;;;;1999.90;999.90;;;12.10;81.40;;;;;;5052011;28;20036;-75
2023/10/08 03:57:58;;;;;;;1999.90;999.90;;;12.10;81.00;;;;;;5051414;28;20124;-74
2023/10/08 04:00:40;;;;;;;1999.90;999.90;;;12.20;81.00;;;;;;5054346;28;20559;-74
2023/10/08 04:03:11;;;;;;;1999.90;999.90;;;12.20;80.60;;;;;;5053678;28;20025;-74
2023/10/08 04:05:44;;;;;;;1999.90;999.90;;;12.20;80.60;;;;;;5055640;28;20071;-74
2023/10/08 04:08:42;;;;;;;1999.90;999.90;;;12.20;80.40;;;;;;5055283;28;20020;-76
2023/10/08 04:13:53;;;;;;;1999.90;999.90;;;12.10;81.30;;;;;;5057065;28;20031;-74
2023/10/08 04:16:19;;;;;;;1999.90;999.90;;;12.20;81.20;;;;;;5055091;28;20454;-75
2023/10/08 04:18:50;;;;;;;1999.90;999.90;;;12.20;81.00;;;;;;5051580;28;20032;-73
2023/10/08 04:21:20;;;;;;;1999.90;999.90;;;12.10;81.50;;;;;;5051658;28;20029;-74
2023/10/08 04:23:46;;;;;;;1999.90;999.90;;;12.10;81.60;;;;;;5054270;28;20036;-75
2023/10/08 04:26:12;;;;;;;1999.90;999.90;;;12.00;81.70;;;;;;5051525;28;20110;-75
2023/10/08 04:28:38;;;;;;;1999.90;999.90;;;12.00;82.00;;;;;;5057796;28;20040;-75
2023/10/08 04:31:28;;;;;;;1999.90;999.90;;;12.00;81.90;;;;;;5050975;28;20141;-74
2023/10/08 04:33:51;;;;;;;1999.90;999.90;;;12.00;81.70;;;;;;5049765;28;20084;-75
2023/10/08 04:36:20;;;;;;;1999.90;999.90;;;12.00;81.70;;;;;;5052734;28;20083;-74
2023/10/08 04:38:48;;;;;;;1999.90;999.90;;;12.00;81.30;;;;;;5053736;28;20029;-74
2023/10/08 04:41:19;;;;;;;1999.90;999.90;;;12.00;81.40;;;;;;5051621;28;20029;-74
2023/10/08 04:43:44;;;;;;;;;;;12.10;81.20;;;;;;5055543;28;20525;-74
2023/10/08 04:46:19;;;;;;;1999.90;999.90;;;12.00;81.20;;;;;;5047956;28;19912;-75
2023/10/08 04:48:49;;;;;;;1999.90;999.90;;;12.10;81.20;;;;;;5054553;28;20037;-74
2023/10/08 04:51:17;;;;;;;1999.90;999.90;;;12.00;81.10;;;;;;5051759;28;20497;-75
2023/10/08 04:53:45;;;;;;;1999.90;999.90;;;12.00;81.20;;;;;;5048638;28;20025;-74
2023/10/08 04:56:22;;;;;;;1999.90;999.90;;;12.00;81.40;;;;;;5051442;28;20117;-77
2023/10/08 04:58:48;;;;;;;1999.90;999.90;;;12.00;81.30;;;;;;5053427;28;20390;-75
2023/10/08 05:01:17;;;;;;;1999.90;999.90;;;11.90;81.20;;;;;;5058509;28;20028;-74
2023/10/08 05:12:08;;;;;;;1999.90;999.90;;;11.80;81.30;;;;;;5052042;28;20034;-74
2023/10/08 05:17:11;;;;;;;1999.90;999.90;;;11.90;80.80;;;;;;5051939;28;20032;-75
2023/10/08 05:25:08;;;;;;;1999.90;999.90;;;11.70;80.90;;;;;;5046383;28;20688;-75
2023/10/08 05:27:38;;;;;;;1999.90;999.90;;;11.70;80.80;;;;;;5048731;28;20032;-75
2023/10/08 05:30:16;;;;;;;1999.90;999.90;;;11.70;81.00;;;;;;5045402;28;20210;-77
2023/10/08 05:51:56;;;;;;;1999.90;999.90;;;11.70;81.40;;;;;;5050587;28;20212;-74
2023/10/08 06:00:17;;;;;;;1999.90;999.90;;;11.70;81.50;;;;;;5050276;28;20034;-75
2023/10/08 06:03:00;;;;;;;1999.90;999.90;;;11.80;81.50;;;;;;5052677;28;20051;-74
2023/10/08 06:05:32;;;;;;;1999.90;999.90;;;11.80;81.60;;;;;;5052246;28;20040;-74
2023/10/08 06:08:10;;;;;;;1999.90;999.90;;;11.80;81.80;;;;;;5044415;28;20044;-75
2023/10/08 06:13:09;;;;;;;1999.90;999.90;;;11.80;82.20;;;;;;5047031;28;20033;-75
2023/10/08 06:18:26;;;;;;;1999.90;999.90;;;11.70;82.70;;;;;;5047277;28;20037;-75
2023/10/08 06:21:00;;;;;;;1999.90;999.90;;;11.70;82.90;;;;;;5048479;28;20094;-74
2023/10/08 06:23:28;;;;;;;1999.90;999.90;;;11.70;82.90;;;;;;5046134;28;20041;-76
2023/10/08 06:25:58;;;;;;;1999.90;999.90;;;11.70;84.20;;;;;;5048126;28;20063;-74
2023/10/08 06:28:26;;;;;;;1999.90;999.90;;;11.70;83.70;;;;;;5049084;28;20617;-76
2023/10/08 06:30:53;;;;;;;1999.90;999.90;;;11.80;84.20;;;;;;5051134;28;20102;-75
2023/10/08 06:33:20;;;;;;;1999.90;999.90;;;11.80;84.20;;;;;;5049102;28;20483;-73
2023/10/08 06:36:01;;;;;;;1999.90;999.90;;;11.80;84.40;;;;;;5054184;28;20036;-74
2023/10/08 06:38:30;;;;;;;1999.90;999.90;;;11.80;84.60;;;;;;5051830;28;20037;-75
2023/10/08 06:41:09;;;;;;;1999.90;999.90;;;11.90;84.60;;;;;;5055347;28;20029;-76
2023/10/08 06:43:38;;;;;;;1999.90;999.90;;;11.90;84.60;;;;;;5050528;28;20032;-74
2023/10/08 06:46:07;;;;;;;1999.90;999.90;;;12.00;84.90;;;;;;5048218;28;20060;-75
2023/10/08 06:48:34;;;;;;;1999.90;999.90;;;12.00;85.00;;;;;;5053965;28;20025;-74
2023/10/08 06:51:12;;;;;;;1999.90;999.90;;;12.10;85.00;;;;;;5046606;28;20045;-74
2023/10/08 06:53:39;;;;;;;1999.90;999.90;;;12.20;84.90;;;;;;5047423;28;20031;-75
2023/10/08 06:56:05;;;;;;;1999.90;999.90;;;12.30;85.30;;;;;;5043902;28;20417;-75
2023/10/08 06:58:34;;;;;;;1999.90;999.90;;;12.40;84.60;;;;;;5049412;28;20044;-75
2023/10/08 07:01:08;;;;;;;1999.90;999.90;;;12.50;85.30;;;;;;5053580;28;20025;-74
2023/10/08 07:03:35;;;;;;;1999.90;999.90;;;12.60;84.30;;;;;;5051751;28;20098;-76
2023/10/08 07:06:02;;;;;;;1999.90;999.90;;;12.80;84.10;;;;;;5050873;28;20096;-75
2023/10/08 07:08:33;;;;;;;1999.90;999.90;;;13.00;84.60;;;;;;5051003;28;20060;-76
2023/10/08 07:11:07;;;;;;;1999.90;999.90;;;13.20;82.90;;;;;;5050849;28;20039;-75
2023/10/08 07:13:35;;;;;;;1999.90;999.90;;;13.50;82.50;;;;;;5053529;28;20080;-74
2023/10/08 07:16:04;;;;;;;1999.90;999.90;;;13.70;82.00;;;;;;5049648;28;20022;-75
2023/10/08 07:18:31;;;;;;;1999.90;999.90;;;13.70;81.40;;;;;;5052458;28;20075;-74
2023/10/08 07:21:00;;;;;;;1999.90;999.90;;;13.80;80.30;;;;;;5050482;28;20055;-75
2023/10/08 07:23:29;;;;;;;1999.90;999.90;;;14.00;80.80;;;;;;5047604;28;20675;-74
2023/10/08 07:26:17;;;;;;;1999.90;999.90;;;14.10;79.90;;;;;;5049932;28;20099;-76
2023/10/08 07:28:44;;;;;;;1999.90;999.90;;;14.30;79.80;;;;;;5048983;28;20035;-74
2023/10/08 07:31:17;;;;;;;1999.90;999.90;;;14.40;78.60;;;;;;5053799;28;20049;-74
2023/10/08 07:33:44;;;;;;;1999.90;999.90;;;14.50;77.40;;;;;;5051677;28;20503;-77
2023/10/08 07:36:14;;;;;;;1999.90;999.90;;;14.70;78.50;;;;;;5054249;28;20053;-77
2023/10/08 07:38:42;;;;;;;1999.90;999.90;;;14.80;76.30;;;;;;5054365;28;20023;-77
2023/10/08 07:41:15;;;;;;;1999.90;999.90;;;14.90;77.10;;;;;;5053478;28;20029;-78
2023/10/08 07:43:46;;;;;;;1999.90;999.90;;;14.90;76.80;;;;;;5051871;28;20032;-77
2023/10/08 07:46:15;;;;;;;1999.90;999.90;;;14.90;75.30;;;;;;5052537;28;20035;-77
2023/10/08 07:48:43;;;;;;;1999.90;999.90;;;15.00;75.90;;;;;;5056975;28;20028;-77
2023/10/08 07:51:09;;;;;;;1999.90;999.90;;;15.10;75.00;;;;;;5055145;28;20123;-77
2023/10/08 07:53:37;;;;;;;1999.90;999.90;;;15.00;75.00;;;;;;5052787;28;20629;-77
2023/10/08 07:56:08;;;;;;;1999.90;999.90;;;15.20;76.20;;;;;;5053758;28;20153;-77
2023/10/08 07:58:37;;;;;;;1999.90;999.90;;;15.10;75.50;;;;;;5059837;28;20091;-77
2023/10/08 08:01:07;;;;;;;1999.90;999.90;;;15.30;76.60;;;;;;5058094;28;20041;-77
2023/10/08 08:03:34;;;;;;;1999.90;999.90;;;15.30;74.00;;;;;;5055260;28;20825;-77
2023/10/08 08:06:00;;;;;;;1999.90;999.90;;;15.40;74.10;;;;;;5053138;28;20082;-78
2023/10/08 08:08:27;;;;;;;1999.90;999.90;;;15.50;72.70;;;;;;5054826;28;20059;-79
2023/10/08 08:10:57;;;;;;;1999.90;999.90;;;15.50;72.30;;;;;;5055603;28;20032;-78
2023/10/08 08:13:27;;;;;;;1999.90;999.90;;;15.70;72.20;;;;;;5047991;28;20028;-77
2023/10/08 08:15:58;;;;;;;1999.90;999.90;;;15.60;71.90;;;;;;5055368;28;20076;-77
2023/10/08 08:18:32;;;;;;;;;;;15.70;71.90;;;;;;5052016;28;20033;-78
2023/10/08 08:21:01;;;;;;;1999.90;999.90;;;15.60;72.90;;;;;;5055706;28;20386;-78
2023/10/08 08:23:28;;;;;;;1999.90;999.90;;;15.80;72.80;;;;;;5054639;28;20040;-79
2023/10/08 08:26:11;;;;;;;1999.90;999.90;;;16.00;71.80;;;;;;5054298;28;20044;-82
2023/10/08 08:28:37;;;;;;;1999.90;999.90;;;16.20;70.30;;;;;;5049797;28;20033;-79
2023/10/08 08:31:04;;;;;;;1999.90;999.90;;;16.40;69.50;;;;;;5049614;28;20128;-79
2023/10/08 08:33:52;;;;;;;1999.90;999.90;;;16.60;69.80;;;;;;5053667;28;20053;-79
2023/10/08 08:36:17;;;;;;;1999.90;999.90;;;16.80;68.90;;;;;;5047971;28;20025;-79
2023/10/08 08:38:44;;;;;;;1999.90;999.90;;;17.00;68.10;;;;;;5052765;28;20039;-81
2023/10/08 08:41:12;;;;;;;1999.90;999.90;;;17.00;67.00;;;;;;5047642;28;20403;-79
2023/10/08 08:43:44;;;;;;;1999.90;999.90;;;17.00;66.20;;;;;;5050277;28;20028;-82
2023/10/08 08:46:12;;;;;;;1999.90;999.90;;;17.10;65.10;;;;;;5048276;28;20498;-79
2023/10/08 08:48:40;;;;;;;1999.90;999.90;;;17.20;66.10;;;;;;5053818;28;20528;-79
2023/10/08 08:51:06;;;;;;;1999.90;999.90;;;17.30;66.90;;;;;;5047974;28;20138;-82
2023/10/08 08:53:34;;;;;;;1999.90;999.90;;;17.40;65.50;;;;;;5033455;28;20044;-81
2023/10/08 08:56:04;;;;;;;1999.90;999.90;;;17.50;66.10;;;;;;5049151;28;20094;-80
2023/10/08 08:58:32;;;;;;;1999.90;999.90;;;17.50;66.50;;;;;;5050920;28;20390;-79
2023/10/08 09:00:59;;;;;;;1999.90;999.90;;;17.50;67.30;;;;;;5053196;28;20468;-80
2023/10/08 09:03:30;;;;;;;1999.90;999.90;;;17.60;68.20;;;;;;5052520;28;20025;-78
2023/10/08 09:05:59;;;;;;;1999.90;999.90;;;17.60;65.90;;;;;;5048755;28;20745;-79
2023/10/08 09:08:42;;;;;;;1999.90;999.90;;;17.80;65.70;;;;;;5051971;28;20033;-81
2023/10/08 09:11:08;;;;;;;1999.90;999.90;;;17.90;65.10;;;;;;5055287;28;20029;-78
2023/10/08 09:13:35;;;;;;;1999.90;999.90;;;17.90;65.80;;;;;;5054211;28;20032;-78
2023/10/08 09:16:14;;;;;;;1999.90;999.90;;;17.80;64.80;;;;;;5031424;28;20112;-74
2023/10/08 09:18:51;;;;;;;1999.90;999.90;;;17.70;65.60;;;;;;5052934;28;20017;-76
2023/10/08 09:21:22;;;;;;;1999.90;999.90;;;17.90;63.00;;;;;;5051233;28;20029;-77
2023/10/08 09:23:54;;;;;;;1999.90;999.90;;;17.80;64.00;;;;;;5056525;28;20024;-76
2023/10/08 09:26:26;;;;;;;1999.90;999.90;;;17.80;65.00;;;;;;5045033;28;20047;-77
2023/10/08 09:28:53;;;;;;;1999.90;999.90;;;17.90;63.00;;;;;;5045129;28;20033;-76
2023/10/08 09:31:23;;;;;;;1999.90;999.90;;;18.00;65.00;;;;;;5048464;28;20044;-76
2023/10/08 09:33:55;;;;;;;1999.90;999.90;;;18.10;64.00;;;;;;5052214;28;20033;-79
2023/10/08 09:36:31;;;;;;;1999.90;999.90;;;18.20;63.80;;;;;;5075446;28;20064;-77
2023/10/08 09:39:01;;;;;;;1999.90;999.90;;;18.10;63.50;;;;;;5046549;28;20025;-77
2023/10/08 09:41:32;;;;;;;1999.90;999.90;;;18.40;63.40;;;;;;5044810;28;20427;-74
2023/10/08 09:44:00;;;;;;;1999.90;999.90;;;18.40;63.10;;;;;;5047114;28;20060;-77
2023/10/08 09:46:34;;;;;;;1999.90;999.90;;;18.10;63.90;;;;;;5042673;28;20064;-78
2023/10/08 09:49:01;;;;;;;1999.90;999.90;;;18.30;64.60;;;;;;5044828;28;20502;-78
2023/10/08 09:51:31;;;;;;;1999.90;999.90;;;18.30;63.90;;;;;;5044102;28;20594;-74
2023/10/08 09:54:20;;;;;;;1999.90;999.90;;;18.50;64.00;;;;;;5044753;28;20032;-80
2023/10/08 09:56:47;;;;;;;1999.90;999.90;;;18.60;62.20;;;;;;5045986;28;20037;-78
2023/10/08 09:59:14;;;;;;;1999.90;999.90;;;18.60;61.60;;;;;;5043748;28;20017;-77
2023/10/08 10:01:42;;;;;;;1999.90;999.90;;;18.80;63.40;;;;;;5048114;28;20710;-78
2023/10/08 10:04:13;;;;;;;1999.90;999.90;;;19.10;62.50;;;;;;5043749;28;20037;-77
2023/10/08 10:06:42;;;;;;;1999.90;999.90;;;19.90;58.80;;;;;;5045379;28;20376;-77
2023/10/08 10:09:15;;;;;;;1999.90;999.90;;;20.70;56.70;;;;;;5048726;28;20533;-78
2023/10/08 10:11:48;;;;;;;1999.90;999.90;;;20.90;53.50;;;;;;5032967;28;20431;-83
2023/10/08 10:14:17;;;;;;;1999.90;999.90;;;20.80;53.50;;;;;;5051982;28;20032;-85
2023/10/08 10:16:48;;;;;;;1999.90;999.90;;;20.70;54.00;;;;;;5049353;28;20080;-79
2023/10/08 10:19:20;;;;;;;1999.90;999.90;;;21.00;54.50;;;;;;5053139;28;20043;-79
2023/10/08 10:21:49;;;;;;;1999.90;999.90;;;21.10;54.80;;;;;;5051569;28;20081;-78
2023/10/08 10:24:35;;;;;;;1999.90;999.90;;;20.90;53.10;;;;;;5035474;28;20051;-79
2023/10/08 10:27:14;;;;;;;1999.90;999.90;;;20.80;53.50;;;;;;5050850;28;20299;-83
2023/10/08 10:29:43;;;;;;;1999.90;999.90;;;20.90;54.10;;;;;;5047721;28;20055;-78
2023/10/08 10:32:14;;;;;;;1999.90;999.90;;;20.70;54.00;;;;;;5046199;28;20028;-80
2023/10/08 10:34:44;;;;;;;1999.90;999.90;;;20.80;55.10;;;;;;5048938;28;20395;-83
2023/10/08 10:37:19;;;;;;;1999.90;999.90;;;20.80;53.70;;;;;;5045187;28;20036;-80
2023/10/08 10:40:00;;;;;;;1999.90;999.90;;;20.90;54.80;;;;;;5048553;28;20041;-79
2023/10/08 10:42:28;;;;;;;1999.90;999.90;;;21.10;54.70;;;;;;5045487;28;20064;-79
2023/10/08 10:44:58;;;;;;;1999.90;999.90;;;20.90;53.90;;;;;;5054084;28;20043;-78
2023/10/08 10:47:27;;;;;;;;;;;21.00;55.10;;;;;;5045074;28;20403;-79
2023/10/08 10:52:51;;;;;;;1999.90;999.90;;;20.70;56.00;;;;;;5049170;28;20032;-78
2023/10/08 10:55:20;;;;;;;1999.90;999.90;;;21.00;58.10;;;;;;5049336;28;20021;-78
2023/10/08 10:58:11;;;;;;;1999.90;999.90;;;20.90;57.50;;;;;;5057101;28;20020;-80
2023/10/08 11:03:09;;;;;;;1999.90;999.90;;;20.70;57.40;;;;;;5053362;28;20076;-80
2023/10/08 11:05:38;;;;;;;1999.90;999.90;;;20.70;56.40;;;;;;5056790;28;20799;-79
2023/10/08 11:08:06;;;;;;;1999.90;999.90;;;20.50;58.20;;;;;;5055129;28;20048;-79
2023/10/08 11:10:50;;;;;;;1999.90;999.90;;;20.60;58.40;;;;;;5048300;28;20055;-77
2023/10/08 11:13:17;;;;;;;1999.90;999.90;;;20.70;57.40;;;;;;5052116;28;20040;-77
2023/10/08 11:15:49;;;;;;;1999.90;999.90;;;21.00;57.60;;;;;;5056952;28;20078;-78
2023/10/08 11:18:16;;;;;;;1999.90;999.90;;;20.90;57.40;;;;;;5032872;28;20140;-77
2023/10/08 11:20:46;;;;;;;1999.90;999.90;;;20.90;59.50;;;;;;5052071;28;20063;-78
2023/10/08 11:23:33;;;;;;;1999.90;999.90;;;20.90;57.80;;;;;;5053421;28;20107;-78
2023/10/08 11:26:05;;;;;;;1999.90;999.90;;;20.80;57.50;;;;;;5047117;28;20125;-79
2023/10/08 11:28:43;;;;;;;1999.90;999.90;;;20.80;58.80;;;;;;5069390;28;20406;-81
2023/10/08 11:31:14;;;;;;;1999.90;999.90;;;20.50;61.20;;;;;;5045537;28;20140;-79
2023/10/08 11:33:56;;;;;;;1999.90;999.90;;;20.70;59.20;;;;;;5054658;28;20108;-78
2023/10/08 11:36:29;;;;;;;1999.90;999.90;;;20.70;58.60;;;;;;5047470;28;20032;-78
2023/10/08 11:39:02;;;;;;;1999.90;999.90;;;20.90;59.20;;;;;;5048327;28;20060;-78
2023/10/08 11:41:35;;;;;;;1999.90;999.90;;;20.80;57.10;;;;;;5043992;28;20064;-77
2023/10/08 11:44:03;;;;;;;1999.90;999.90;;;21.10;58.30;;;;;;5052085;28;20086;-77
2023/10/08 11:46:38;;;;;;;1999.90;999.90;;;21.00;56.60;;;;;;5049630;28;20495;-76
2023/10/08 11:49:11;;;;;;;1999.90;999.90;;;20.60;57.00;;;;;;5052334;28;20078;-77
2023/10/08 11:51:39;;;;;;;1999.90;999.90;;;20.40;59.20;;;;;;5051361;28;20495;-78
2023/10/08 11:54:05;;;;;;;1999.90;999.90;;;20.50;57.50;;;;;;5053585;28;20116;-77
2023/10/08 11:56:33;;;;;;;1999.90;999.90;;;20.70;58.30;;;;;;5051805;28;20132;-77
2023/10/08 11:59:01;;;;;;;1999.90;999.90;;;20.30;57.20;;;;;;5046314;28;20112;-77
2023/10/08 12:01:27;;;;;;;1999.90;999.90;;;20.40;59.70;;;;;;5037290;28;20043;-78
2023/10/08 12:03:59;;;;;;;1999.90;999.90;;;20.50;57.90;;;;;;5040521;28;20029;-77
2023/10/08 12:06:29;;;;;;;1999.90;999.90;;;20.40;57.60;;;;;;5041311;28;20033;-77
2023/10/08 12:08:58;;;;;;;1999.90;999.90;;;20.50;57.10;;;;;;5037680;28;20056;-77
2023/10/08 12:11:34;;;;;;;1999.90;999.90;;;20.50;57.20;;;;;;5041075;28;20033;-78
2023/10/08 12:14:01;;;;;;;1999.90;999.90;;;20.50;57.20;;;;;;5037790;28;20046;-78
2023/10/08 12:16:30;;;;;;;1999.90;999.90;;;20.50;59.10;;;;;;5039357;28;20033;-77
2023/10/08 12:18:59;;;;;;;1999.90;999.90;;;20.70;57.50;;;;;;5041103;28;20047;-77
2023/10/08 12:21:25;;;;;;;1999.90;999.90;;;20.70;57.00;;;;;;5039203;28;20178;-77
2023/10/08 12:23:52;;;;;;;1999.90;999.90;;;20.70;57.00;;;;;;5040608;28;20064;-78
2023/10/08 12:26:19;;;;;;;1999.90;999.90;;;20.80;57.00;;;;;;5041898;28;20041;-78
2023/10/08 12:28:48;;;;;;;1999.90;999.90;;;21.00;58.70;;;;;;5043582;28;20068;-78
2023/10/08 12:31:22;;;;;;;1999.90;999.90;;;21.20;55.50;;;;;;5040014;28;20049;-77
2023/10/08 12:33:53;;;;;;;1999.90;999.90;;;21.40;54.60;;;;;;5038591;28;20115;-78
2023/10/08 12:36:22;;;;;;;1999.90;999.90;;;21.50;55.20;;;;;;5039697;28;20029;-79
2023/10/08 12:38:49;;;;;;;1999.90;999.90;;;21.30;54.30;;;;;;5038328;28;20461;-78
2023/10/08 12:41:18;;;;;;;1999.90;999.90;;;21.40;54.80;;;;;;5036429;28;20032;-79
2023/10/08 12:43:52;;;;;;;1999.90;999.90;;;21.40;54.70;;;;;;5047903;28;20060;-78
2023/10/08 12:46:18;;;;;;;1999.90;999.90;;;21.40;58.20;;;;;;5044042;28;20025;-78
2023/10/08 12:48:47;;;;;;;1999.90;999.90;;;21.40;56.10;;;;;;5038775;28;20037;-77
2023/10/08 12:51:14;;;;;;;1999.90;999.90;;;21.60;57.40;;;;;;5042668;28;20056;-78
2023/10/08 12:53:41;;;;;;;1999.90;999.90;;;21.70;55.80;;;;;;5040947;28;20029;-78
2023/10/08 12:56:26;;;;;;;1999.90;999.90;;;21.70;54.30;;;;;;5050163;28;20234;-80
2023/10/08 12:58:53;;;;;;;1999.90;999.90;;;21.90;53.90;;;;;;5046536;28;20043;-79
2023/10/08 13:01:19;;;;;;;1999.90;999.90;;;21.90;52.70;;;;;;5043291;28;20025;-79
2023/10/08 13:03:48;;;;;;;1999.90;999.90;;;21.90;55.20;;;;;;5042836;28;20041;-78
2023/10/08 13:06:21;;;;;;;1999.90;999.90;;;22.10;51.90;;;;;;5042776;28;20041;-78
2023/10/08 13:08:49;;;;;;;1999.90;999.90;;;22.00;52.10;;;;;;5054706;28;20453;-78
2023/10/08 13:11:14;;;;;;;1999.90;999.90;;;21.60;52.40;;;;;;5050838;28;20037;-78
2023/10/08 13:13:41;;;;;;;1999.90;999.90;;;21.30;52.40;;;;;;5042532;28;20416;-78
2023/10/08 13:16:07;;;;;;;1999.90;999.90;;;21.40;54.20;;;;;;5042351;28;20044;-79
2023/10/08 13:18:34;;;;;;;1999.90;999.90;;;21.30;53.50;;;;;;5045665;28;20456;-78